createdAt,value
2018-06-22T18:54:14.204Z,22.10
2018-06-22T18:59:54.799Z,44.30
2018-06-22T19:00:51.515Z,33.00
2018-06-22T19:01:49.458Z,44.20
2018-06-22T19:47:05.233Z,19.90
2018-06-22T19:48:05.844Z,22.60
2018-06-22T19:49:58.929Z,18.30
2018-06-22T19:51:36.157Z,21.20
2018-06-22T19:52:34.203Z,22.30
2018-06-22T19:53:35.735Z,19.60
2018-06-22T19:54:35.586Z,19.40
2018-06-22T19:55:35.627Z,21.30
2018-06-22T19:56:34.552Z,23.60
2018-06-22T19:57:35.750Z,19.30
2018-06-22T19:58:34.147Z,19.50
2018-06-22T19:59:34.153Z,22.40
2018-06-22T20:00:34.211Z,22.50
2018-06-22T20:01:34.151Z,30.70
2018-06-22T20:02:34.184Z,23.80
2018-06-22T20:03:34.151Z,27.20
2018-06-22T20:04:35.224Z,22.30
2018-06-22T20:05:36.641Z,23.60
2018-06-22T20:06:35.241Z,23.70
2018-06-22T20:07:34.184Z,23.60
2018-06-22T20:08:35.609Z,16.30
2018-06-22T20:09:36.185Z,24.00
2018-06-22T20:10:34.191Z,23.30
2018-06-22T20:11:36.121Z,22.80
2018-06-22T20:12:39.655Z,23.40
2018-06-22T20:13:35.628Z,25.20
2018-06-22T20:14:35.644Z,26.70
2018-06-22T20:15:36.420Z,21.00
2018-06-22T20:16:35.932Z,19.60
2018-06-22T20:17:34.287Z,21.10
2018-06-22T20:18:35.629Z,43.30
2018-06-22T20:19:36.483Z,24.70
2018-06-22T20:20:34.336Z,25.90
2018-06-22T20:21:35.637Z,22.10
2018-06-22T20:22:35.688Z,20.70
2018-06-22T20:23:40.808Z,22.10
2018-06-22T20:24:36.130Z,23.10
2018-06-22T20:25:35.633Z,24.80
2018-06-22T20:26:34.422Z,22.50
2018-06-22T20:27:35.624Z,20.10
2018-06-22T20:28:36.776Z,21.00
2018-06-22T20:29:36.142Z,17.20
2018-06-22T20:30:35.620Z,22.40
2018-06-22T20:31:35.683Z,20.60
2018-06-22T20:32:35.631Z,26.10
2018-06-22T20:33:35.578Z,25.20
2018-06-22T20:34:35.548Z,22.20
2018-06-22T20:35:36.208Z,28.40
2018-06-22T20:36:35.142Z,19.00
2018-06-22T20:37:34.204Z,23.60
2018-06-22T20:38:35.830Z,24.30
2018-06-22T20:39:35.664Z,24.00
2018-06-22T20:40:34.183Z,27.40
2018-06-22T20:41:34.310Z,29.10
2018-06-22T20:42:36.716Z,21.90
2018-06-22T20:43:36.161Z,28.90
2018-06-22T20:44:36.175Z,23.40
2018-06-22T20:45:34.240Z,23.30
2018-06-22T20:46:34.425Z,19.30
2018-06-22T20:47:34.252Z,19.90
2018-06-22T20:48:37.935Z,22.80
2018-06-22T20:49:34.284Z,24.60
2018-06-22T20:50:34.264Z,20.10
2018-06-22T20:51:35.634Z,22.80
2018-06-22T20:52:37.551Z,25.50
2018-06-22T20:53:35.217Z,25.90
2018-06-22T20:54:36.150Z,38.40
2018-06-22T20:55:35.614Z,98.30
2018-06-22T20:56:35.656Z,57.10
2018-06-22T20:57:35.657Z,637.50
2018-06-22T20:58:35.655Z,534.20
2018-06-22T20:59:35.665Z,411.00
2018-06-22T21:00:35.597Z,389.40
2018-06-22T21:01:35.856Z,419.40
2018-06-22T21:02:36.751Z,322.00
2018-06-22T21:03:36.141Z,87.10
2018-06-22T21:04:36.134Z,41.60
2018-06-22T21:05:35.621Z,47.30
2018-06-22T21:06:36.186Z,32.90
2018-06-22T21:07:36.135Z,23.90
2018-06-22T21:08:34.173Z,28.30
2018-06-22T21:09:34.163Z,29.00
2018-06-22T21:10:35.171Z,21.90
2018-06-22T21:11:36.794Z,23.70
2018-06-22T21:12:40.415Z,19.80
2018-06-22T21:13:35.516Z,23.40
2018-06-22T21:14:35.644Z,23.30
2018-06-22T21:15:35.667Z,23.80
2018-06-22T21:16:35.637Z,21.80
2018-06-22T21:17:37.354Z,19.80
2018-06-22T21:18:34.183Z,21.10
2018-06-22T21:19:35.541Z,25.40
2018-06-22T21:20:34.166Z,21.70
2018-06-22T21:21:35.702Z,22.30
2018-06-22T21:22:35.601Z,19.50
2018-06-22T21:23:35.636Z,25.00
2018-06-22T21:24:35.639Z,19.20
2018-06-22T21:25:35.636Z,22.30
